sensor_id;sensor_type;location;lat;lon;timestamp;temperature;humidity
36212;DHT22;22247;48.586;13.492;2023-05-21T16:51:01;23.00;86.60
36212;DHT22;22247;48.586;13.492;2023-05-21T16:53:26;22.30;86.30
36212;DHT22;22247;48.586;13.492;2023-05-21T16:55:54;21.50;89.20
36212;DHT22;22247;48.586;13.492;2023-05-21T16:58:20;21.40;91.30
36212;DHT22;22247;48.586;13.492;2023-05-21T17:00:46;21.60;90.90
36212;DHT22;22247;48.586;13.492;2023-05-21T17:07:19;21.00;90.40
36212;DHT22;22247;48.586;13.492;2023-05-21T17:09:44;21.10;90.50
36212;DHT22;22247;48.586;13.492;2023-05-21T17:12:10;20.90;90.90
36212;DHT22;22247;48.586;13.492;2023-05-21T17:14:38;20.90;91.40
36212;DHT22;22247;48.586;13.492;2023-05-21T17:17:04;20.70;91.30
36212;DHT22;22247;48.586;13.492;2023-05-21T17:19:30;20.60;91.50
36212;DHT22;22247;48.586;13.492;2023-05-21T17:25:56;24.80;84.30
36212;DHT22;22247;48.586;13.492;2023-05-21T17:28:22;23.40;86.70
36212;DHT22;22247;48.586;13.492;2023-05-21T17:30:47;22.40;89.70
36212;DHT22;22247;48.586;13.492;2023-05-21T17:32:09;22.20;90.20
36212;DHT22;22247;48.586;13.492;2023-05-21T17:32:45;22.20;90.50
36212;DHT22;22247;48.586;13.492;2023-05-21T17:33:15;22.10;91.10
36212;DHT22;22247;48.586;13.492;2023-05-21T17:37:27;22.50;89.60
36212;DHT22;22247;48.586;13.492;2023-05-21T17:40:57;23.00;88.30
36212;DHT22;22247;48.586;13.492;2023-05-21T17:41:28;22.80;88.80
36212;DHT22;22247;48.586;13.492;2023-05-21T18:31:29;21.90;89.10
36212;DHT22;22247;48.586;13.492;2023-05-21T18:33:54;21.60;90.00
36212;DHT22;22247;48.586;13.492;2023-05-21T18:36:23;21.40;90.20
36212;DHT22;22247;48.586;13.492;2023-05-21T18:38:54;21.30;90.60
36212;DHT22;22247;48.586;13.492;2023-05-21T18:41:20;21.10;91.50
36212;DHT22;22247;48.586;13.492;2023-05-21T18:43:45;20.90;90.90
36212;DHT22;22247;48.586;13.492;2023-05-21T18:46:10;20.70;90.80
36212;DHT22;22247;48.586;13.492;2023-05-21T18:48:36;20.60;92.50
36212;DHT22;22247;48.586;13.492;2023-05-21T18:51:01;20.40;92.60
36212;DHT22;22247;48.586;13.492;2023-05-21T18:53:26;20.30;93.50
36212;DHT22;22247;48.586;13.492;2023-05-21T18:55:51;20.10;93.60
36212;DHT22;22247;48.586;13.492;2023-05-21T18:58:15;20.10;92.50
36212;DHT22;22247;48.586;13.492;2023-05-21T19:00:42;20.00;92.90
36212;DHT22;22247;48.586;13.492;2023-05-21T19:03:07;19.90;92.90
36212;DHT22;22247;48.586;13.492;2023-05-21T19:05:31;19.80;92.90
36212;DHT22;22247;48.586;13.492;2023-05-21T19:07:56;19.70;94.40
36212;DHT22;22247;48.586;13.492;2023-05-21T19:10:21;19.60;94.40
36212;DHT22;22247;48.586;13.492;2023-05-21T19:12:47;19.50;95.70
36212;DHT22;22247;48.586;13.492;2023-05-21T19:15:12;19.30;95.30
36212;DHT22;22247;48.586;13.492;2023-05-21T19:17:37;19.20;96.40
36212;DHT22;22247;48.586;13.492;2023-05-21T19:20:03;19.10;97.10
36212;DHT22;22247;48.586;13.492;2023-05-21T19:22:30;19.10;95.40
36212;DHT22;22247;48.586;13.492;2023-05-21T19:24:54;19.00;96.80
36212;DHT22;22247;48.586;13.492;2023-05-21T19:27:20;18.90;97.40
36212;DHT22;22247;48.586;13.492;2023-05-21T19:29:45;18.80;97.90
36212;DHT22;22247;48.586;13.492;2023-05-21T19:32:12;18.70;98.10
36212;DHT22;22247;48.586;13.492;2023-05-21T19:34:39;18.60;98.90
36212;DHT22;22247;48.586;13.492;2023-05-21T19:37:04;18.60;98.10
36212;DHT22;22247;48.586;13.492;2023-05-21T19:39:36;18.60;98.20
36212;DHT22;22247;48.586;13.492;2023-05-21T19:42:01;18.50;98.70
36212;DHT22;22247;48.586;13.492;2023-05-21T19:44:26;18.50;97.40
36212;DHT22;22247;48.586;13.492;2023-05-21T19:46:53;18.40;99.20
36212;DHT22;22247;48.586;13.492;2023-05-21T19:49:22;18.40;97.90
36212;DHT22;22247;48.586;13.492;2023-05-21T19:51:49;18.40;97.80
36212;DHT22;22247;48.586;13.492;2023-05-21T19:54:15;18.40;98.90
36212;DHT22;22247;48.586;13.492;2023-05-21T19:56:39;18.40;98.60
36212;DHT22;22247;48.586;13.492;2023-05-21T19:59:04;18.30;99.60
36212;DHT22;22247;48.586;13.492;2023-05-21T20:01:31;18.20;99.30
36212;DHT22;22247;48.586;13.492;2023-05-21T20:03:58;18.10;99.30
36212;DHT22;22247;48.586;13.492;2023-05-21T20:06:23;18.10;99.40
36212;DHT22;22247;48.586;13.492;2023-05-21T20:08:50;18.10;99.10
36212;DHT22;22247;48.586;13.492;2023-05-21T20:11:15;18.20;99.00
36212;DHT22;22247;48.586;13.492;2023-05-21T20:13:40;18.20;98.80
36212;DHT22;22247;48.586;13.492;2023-05-21T20:16:11;18.30;98.80
36212;DHT22;22247;48.586;13.492;2023-05-21T20:18:37;18.30;98.60
36212;DHT22;22247;48.586;13.492;2023-05-21T20:21:02;18.20;99.60
36212;DHT22;22247;48.586;13.492;2023-05-21T20:23:29;18.20;99.60
36212;DHT22;22247;48.586;13.492;2023-05-21T20:25:54;18.10;99.90
36212;DHT22;22247;48.586;13.492;2023-05-21T20:28:20;18.00;99.90
36212;DHT22;22247;48.586;13.492;2023-05-21T20:30:53;17.90;99.90
36212;DHT22;22247;48.586;13.492;2023-05-21T20:33:18;17.90;99.90
36212;DHT22;22247;48.586;13.492;2023-05-21T20:35:43;17.80;99.90
36212;DHT22;22247;48.586;13.492;2023-05-21T20:38:07;17.90;99.90
36212;DHT22;22247;48.586;13.492;2023-05-21T20:40:34;17.80;99.90
36212;DHT22;22247;48.586;13.492;2023-05-21T20:42:59;17.70;99.90
36212;DHT22;22247;48.586;13.492;2023-05-21T20:45:24;17.70;99.90
36212;DHT22;22247;48.586;13.492;2023-05-21T20:47:52;17.60;99.90
36212;DHT22;22247;48.586;13.492;2023-05-21T20:50:19;17.50;99.90
36212;DHT22;22247;48.586;13.492;2023-05-21T20:52:49;17.50;99.90
36212;DHT22;22247;48.586;13.492;2023-05-21T20:55:15;17.40;99.90
36212;DHT22;22247;48.586;13.492;2023-05-21T20:57:39;17.40;99.90
36212;DHT22;22247;48.586;13.492;2023-05-21T21:00:05;17.30;99.90
36212;DHT22;22247;48.586;13.492;2023-05-21T21:02:32;17.30;99.90
36212;DHT22;22247;48.586;13.492;2023-05-21T21:04:56;17.20;99.90
36212;DHT22;22247;48.586;13.492;2023-05-21T21:07:23;17.00;99.90
36212;DHT22;22247;48.586;13.492;2023-05-21T21:09:47;17.20;99.90
36212;DHT22;22247;48.586;13.492;2023-05-21T21:12:12;17.20;99.90
36212;DHT22;22247;48.586;13.492;2023-05-21T21:14:37;17.10;99.90
36212;DHT22;22247;48.586;13.492;2023-05-21T21:17:01;17.10;99.90
36212;DHT22;22247;48.586;13.492;2023-05-21T21:19:26;17.00;99.90
36212;DHT22;22247;48.586;13.492;2023-05-21T21:21:50;17.00;99.90
36212;DHT22;22247;48.586;13.492;2023-05-21T21:24:18;17.00;99.90
36212;DHT22;22247;48.586;13.492;2023-05-21T21:26:45;17.00;99.90
36212;DHT22;22247;48.586;13.492;2023-05-21T21:29:09;16.90;99.90
36212;DHT22;22247;48.586;13.492;2023-05-21T21:31:36;16.80;99.90
36212;DHT22;22247;48.586;13.492;2023-05-21T21:34:01;16.70;99.90
36212;DHT22;22247;48.586;13.492;2023-05-21T21:36:25;16.70;99.90
36212;DHT22;22247;48.586;13.492;2023-05-21T21:38:52;16.70;99.90
36212;DHT22;22247;48.586;13.492;2023-05-21T21:41:16;16.60;99.90
36212;DHT22;22247;48.586;13.492;2023-05-21T21:43:42;16.60;99.90
36212;DHT22;22247;48.586;13.492;2023-05-21T21:46:07;16.60;99.90
36212;DHT22;22247;48.586;13.492;2023-05-21T21:48:31;16.50;99.90
36212;DHT22;22247;48.586;13.492;2023-05-21T21:50:56;16.60;99.90
36212;DHT22;22247;48.586;13.492;2023-05-21T21:53:21;16.50;99.90
36212;DHT22;22247;48.586;13.492;2023-05-21T21:55:45;16.50;99.90
36212;DHT22;22247;48.586;13.492;2023-05-21T21:58:10;16.40;99.90
36212;DHT22;22247;48.586;13.492;2023-05-21T22:00:34;16.30;99.90
36212;DHT22;22247;48.586;13.492;2023-05-21T22:03:00;16.30;99.90
36212;DHT22;22247;48.586;13.492;2023-05-21T22:05:24;16.30;99.90
36212;DHT22;22247;48.586;13.492;2023-05-21T22:07:50;16.30;99.90
36212;DHT22;22247;48.586;13.492;2023-05-21T22:10:17;16.30;99.90
36212;DHT22;22247;48.586;13.492;2023-05-21T22:12:42;16.20;99.90
36212;DHT22;22247;48.586;13.492;2023-05-21T22:15:09;16.10;99.90
36212;DHT22;22247;48.586;13.492;2023-05-21T22:17:34;16.00;99.90
36212;DHT22;22247;48.586;13.492;2023-05-21T22:19:59;16.00;99.90
36212;DHT22;22247;48.586;13.492;2023-05-21T22:22:24;16.00;99.90
36212;DHT22;22247;48.586;13.492;2023-05-21T22:24:49;16.00;99.90
36212;DHT22;22247;48.586;13.492;2023-05-21T22:27:13;16.10;99.90
36212;DHT22;22247;48.586;13.492;2023-05-21T22:29:38;16.10;99.90
36212;DHT22;22247;48.586;13.492;2023-05-21T22:32:03;16.00;99.90
36212;DHT22;22247;48.586;13.492;2023-05-21T22:34:27;16.00;99.90
36212;DHT22;22247;48.586;13.492;2023-05-21T22:36:54;16.00;99.90
36212;DHT22;22247;48.586;13.492;2023-05-21T22:39:19;16.00;99.90
36212;DHT22;22247;48.586;13.492;2023-05-21T22:41:43;15.90;99.90
36212;DHT22;22247;48.586;13.492;2023-05-21T22:44:08;15.90;99.90
36212;DHT22;22247;48.586;13.492;2023-05-21T22:46:33;15.80;99.90
36212;DHT22;22247;48.586;13.492;2023-05-21T22:48:58;15.80;99.90
36212;DHT22;22247;48.586;13.492;2023-05-21T22:51:23;15.70;99.90
36212;DHT22;22247;48.586;13.492;2023-05-21T22:53:47;15.70;99.90
36212;DHT22;22247;48.586;13.492;2023-05-21T22:56:12;15.60;99.90
36212;DHT22;22247;48.586;13.492;2023-05-21T22:58:37;15.70;99.90
36212;DHT22;22247;48.586;13.492;2023-05-21T23:01:02;15.60;99.90
36212;DHT22;22247;48.586;13.492;2023-05-21T23:03:27;15.60;99.90
36212;DHT22;22247;48.586;13.492;2023-05-21T23:05:52;15.60;99.90
36212;DHT22;22247;48.586;13.492;2023-05-21T23:08:16;15.60;99.90
36212;DHT22;22247;48.586;13.492;2023-05-21T23:10:41;15.50;99.90
36212;DHT22;22247;48.586;13.492;2023-05-21T23:13:05;15.50;99.90
36212;DHT22;22247;48.586;13.492;2023-05-21T23:15:30;15.40;99.90
36212;DHT22;22247;48.586;13.492;2023-05-21T23:17:57;15.50;99.90
36212;DHT22;22247;48.586;13.492;2023-05-21T23:20:30;15.50;99.90
36212;DHT22;22247;48.586;13.492;2023-05-21T23:22:55;15.50;99.90
36212;DHT22;22247;48.586;13.492;2023-05-21T23:25:20;15.50;99.90
36212;DHT22;22247;48.586;13.492;2023-05-21T23:27:47;15.40;99.90
36212;DHT22;22247;48.586;13.492;2023-05-21T23:30:11;15.40;99.90
36212;DHT22;22247;48.586;13.492;2023-05-21T23:32:36;15.40;99.90
36212;DHT22;22247;48.586;13.492;2023-05-21T23:35:00;15.30;99.90
36212;DHT22;22247;48.586;13.492;2023-05-21T23:37:25;15.20;99.90
36212;DHT22;22247;48.586;13.492;2023-05-21T23:39:49;15.20;99.90
36212;DHT22;22247;48.586;13.492;2023-05-21T23:42:15;15.10;99.90
36212;DHT22;22247;48.586;13.492;2023-05-21T23:44:40;15.10;99.90
36212;DHT22;22247;48.586;13.492;2023-05-21T23:47:05;15.10;99.90
36212;DHT22;22247;48.586;13.492;2023-05-21T23:49:30;15.00;99.90
36212;DHT22;22247;48.586;13.492;2023-05-21T23:51:54;15.10;99.90
36212;DHT22;22247;48.586;13.492;2023-05-21T23:54:22;15.10;99.90
36212;DHT22;22247;48.586;13.492;2023-05-21T23:56:46;15.10;99.90
36212;DHT22;22247;48.586;13.492;2023-05-21T23:59:11;15.10;99.90
